sensor_id;sensor_type;location;lat;lon;timestamp;P1;durP1;ratioP1;P2;durP2;ratioP2
13349;SDS011;6744;53.190;6.576;2024-03-23T00:53:27;7.80;;;2.90;;
13349;SDS011;6744;53.190;6.576;2024-03-23T00:55:53;9.17;;;3.10;;
13349;SDS011;6744;53.190;6.576;2024-03-23T00:58:19;7.57;;;3.13;;
13349;SDS011;6744;53.190;6.576;2024-03-23T01:00:44;6.90;;;3.10;;
13349;SDS011;6744;53.190;6.576;2024-03-23T01:03:10;9.73;;;3.23;;
13349;SDS011;6744;53.190;6.576;2024-03-23T01:05:35;7.63;;;3.50;;
13349;SDS011;6744;53.190;6.576;2024-03-23T01:08:01;10.10;;;2.97;;
13349;SDS011;6744;53.190;6.576;2024-03-23T01:10:27;10.77;;;3.70;;
13349;SDS011;6744;53.190;6.576;2024-03-23T01:12:52;10.57;;;2.90;;
13349;SDS011;6744;53.190;6.576;2024-03-23T01:15:18;6.40;;;2.80;;
13349;SDS011;6744;53.190;6.576;2024-03-23T01:17:43;8.33;;;3.07;;
13349;SDS011;6744;53.190;6.576;2024-03-23T01:20:09;8.77;;;2.80;;
13349;SDS011;6744;53.190;6.576;2024-03-23T01:22:34;9.20;;;3.13;;
13349;SDS011;6744;53.190;6.576;2024-03-23T01:25:00;11.03;;;4.07;;
13349;SDS011;6744;53.190;6.576;2024-03-23T01:27:25;9.47;;;3.60;;
13349;SDS011;6744;53.190;6.576;2024-03-23T01:29:50;7.97;;;2.87;;
13349;SDS011;6744;53.190;6.576;2024-03-23T01:32:17;9.27;;;3.57;;
13349;SDS011;6744;53.190;6.576;2024-03-23T01:34:43;11.00;;;3.23;;
13349;SDS011;6744;53.190;6.576;2024-03-23T01:37:09;9.50;;;3.20;;
13349;SDS011;6744;53.190;6.576;2024-03-23T01:39:34;7.30;;;2.90;;
13349;SDS011;6744;53.190;6.576;2024-03-23T01:42:00;7.47;;;3.13;;
13349;SDS011;6744;53.190;6.576;2024-03-23T01:44:25;7.87;;;2.93;;
13349;SDS011;6744;53.190;6.576;2024-03-23T01:46:51;9.77;;;3.30;;
13349;SDS011;6744;53.190;6.576;2024-03-23T01:49:16;9.90;;;3.50;;
13349;SDS011;6744;53.190;6.576;2024-03-23T01:51:42;10.00;;;3.67;;
13349;SDS011;6744;53.190;6.576;2024-03-23T01:54:08;13.53;;;4.00;;
13349;SDS011;6744;53.190;6.576;2024-03-23T01:56:34;13.77;;;3.77;;
13349;SDS011;6744;53.190;6.576;2024-03-23T01:59:03;9.77;;;3.20;;
13349;SDS011;6744;53.190;6.576;2024-03-23T02:01:28;11.03;;;3.70;;
13349;SDS011;6744;53.190;6.576;2024-03-23T02:03:54;8.73;;;3.33;;
13349;SDS011;6744;53.190;6.576;2024-03-23T02:06:19;8.27;;;3.07;;
13349;SDS011;6744;53.190;6.576;2024-03-23T02:08:45;8.50;;;3.40;;
13349;SDS011;6744;53.190;6.576;2024-03-23T02:11:10;12.57;;;3.70;;
13349;SDS011;6744;53.190;6.576;2024-03-23T02:13:36;9.93;;;3.27;;
13349;SDS011;6744;53.190;6.576;2024-03-23T02:16:01;9.60;;;3.67;;
13349;SDS011;6744;53.190;6.576;2024-03-23T02:18:27;11.60;;;3.67;;
13349;SDS011;6744;53.190;6.576;2024-03-23T02:20:52;9.67;;;2.97;;
13349;SDS011;6744;53.190;6.576;2024-03-23T02:23:18;7.97;;;3.20;;
13349;SDS011;6744;53.190;6.576;2024-03-23T02:25:44;9.47;;;3.13;;
13349;SDS011;6744;53.190;6.576;2024-03-23T02:28:10;10.10;;;3.17;;
13349;SDS011;6744;53.190;6.576;2024-03-23T02:30:35;8.23;;;3.53;;
13349;SDS011;6744;53.190;6.576;2024-03-23T02:33:01;7.53;;;3.00;;
13349;SDS011;6744;53.190;6.576;2024-03-23T02:35:26;7.17;;;2.63;;
13349;SDS011;6744;53.190;6.576;2024-03-23T02:37:52;8.83;;;2.80;;
13349;SDS011;6744;53.190;6.576;2024-03-23T02:40:19;7.87;;;3.10;;
13349;SDS011;6744;53.190;6.576;2024-03-23T02:42:46;8.60;;;2.93;;
13349;SDS011;6744;53.190;6.576;2024-03-23T02:45:12;10.73;;;3.47;;
13349;SDS011;6744;53.190;6.576;2024-03-23T02:47:37;8.60;;;3.60;;
13349;SDS011;6744;53.190;6.576;2024-03-23T02:50:03;9.97;;;2.90;;
13349;SDS011;6744;53.190;6.576;2024-03-23T02:52:29;12.20;;;3.03;;
13349;SDS011;6744;53.190;6.576;2024-03-23T02:54:55;7.87;;;3.00;;
13349;SDS011;6744;53.190;6.576;2024-03-23T02:57:20;6.60;;;3.00;;
13349;SDS011;6744;53.190;6.576;2024-03-23T02:59:45;8.57;;;3.03;;
13349;SDS011;6744;53.190;6.576;2024-03-23T03:02:11;9.50;;;3.17;;
13349;SDS011;6744;53.190;6.576;2024-03-23T03:04:38;8.57;;;2.60;;
13349;SDS011;6744;53.190;6.576;2024-03-23T03:07:03;12.47;;;3.13;;
13349;SDS011;6744;53.190;6.576;2024-03-23T03:09:29;9.13;;;2.67;;
13349;SDS011;6744;53.190;6.576;2024-03-23T03:11:54;10.90;;;3.60;;
13349;SDS011;6744;53.190;6.576;2024-03-23T03:14:20;11.50;;;3.37;;
13349;SDS011;6744;53.190;6.576;2024-03-23T03:16:45;6.07;;;2.47;;
13349;SDS011;6744;53.190;6.576;2024-03-23T03:19:11;8.03;;;3.00;;
13349;SDS011;6744;53.190;6.576;2024-03-23T03:21:36;11.33;;;2.70;;
13349;SDS011;6744;53.190;6.576;2024-03-23T03:24:02;8.87;;;3.00;;
13349;SDS011;6744;53.190;6.576;2024-03-23T03:26:29;7.27;;;2.60;;
13349;SDS011;6744;53.190;6.576;2024-03-23T03:28:54;8.40;;;2.97;;
13349;SDS011;6744;53.190;6.576;2024-03-23T03:31:20;8.87;;;2.90;;
13349;SDS011;6744;53.190;6.576;2024-03-23T03:33:46;7.43;;;2.50;;
13349;SDS011;6744;53.190;6.576;2024-03-23T03:36:11;6.67;;;2.63;;
13349;SDS011;6744;53.190;6.576;2024-03-23T03:38:37;9.77;;;2.63;;
13349;SDS011;6744;53.190;6.576;2024-03-23T03:41:03;9.30;;;2.83;;
13349;SDS011;6744;53.190;6.576;2024-03-23T03:43:29;8.10;;;2.77;;
13349;SDS011;6744;53.190;6.576;2024-03-23T03:45:55;5.83;;;2.50;;
13349;SDS011;6744;53.190;6.576;2024-03-23T03:48:21;9.57;;;2.70;;
13349;SDS011;6744;53.190;6.576;2024-03-23T03:50:47;8.73;;;2.77;;
13349;SDS011;6744;53.190;6.576;2024-03-23T03:53:12;10.27;;;3.20;;
13349;SDS011;6744;53.190;6.576;2024-03-23T03:55:37;8.97;;;2.17;;
13349;SDS011;6744;53.190;6.576;2024-03-23T03:58:03;4.40;;;2.47;;
13349;SDS011;6744;53.190;6.576;2024-03-23T04:00:29;8.90;;;2.57;;
13349;SDS011;6744;53.190;6.576;2024-03-23T04:02:55;10.73;;;3.10;;
13349;SDS011;6744;53.190;6.576;2024-03-23T04:05:21;8.93;;;2.60;;
13349;SDS011;6744;53.190;6.576;2024-03-23T04:07:47;8.63;;;2.50;;
13349;SDS011;6744;53.190;6.576;2024-03-23T04:10:12;7.13;;;2.50;;
13349;SDS011;6744;53.190;6.576;2024-03-23T04:12:38;7.00;;;2.77;;
13349;SDS011;6744;53.190;6.576;2024-03-23T04:15:03;9.00;;;2.73;;
13349;SDS011;6744;53.190;6.576;2024-03-23T04:17:30;10.20;;;2.83;;
13349;SDS011;6744;53.190;6.576;2024-03-23T04:19:59;8.23;;;2.80;;
13349;SDS011;6744;53.190;6.576;2024-03-23T04:22:25;9.67;;;2.80;;
13349;SDS011;6744;53.190;6.576;2024-03-23T04:24:54;7.27;;;2.20;;
13349;SDS011;6744;53.190;6.576;2024-03-23T04:27:23;6.27;;;2.53;;
13349;SDS011;6744;53.190;6.576;2024-03-23T04:29:49;7.70;;;2.63;;
13349;SDS011;6744;53.190;6.576;2024-03-23T04:32:18;6.87;;;2.37;;
13349;SDS011;6744;53.190;6.576;2024-03-23T04:34:44;3.90;;;2.10;;
13349;SDS011;6744;53.190;6.576;2024-03-23T04:37:09;7.27;;;2.50;;
13349;SDS011;6744;53.190;6.576;2024-03-23T04:39:38;8.10;;;2.63;;
13349;SDS011;6744;53.190;6.576;2024-03-23T04:42:03;7.13;;;2.10;;
13349;SDS011;6744;53.190;6.576;2024-03-23T04:44:29;9.23;;;3.00;;
13349;SDS011;6744;53.190;6.576;2024-03-23T04:46:56;6.63;;;2.30;;
13349;SDS011;6744;53.190;6.576;2024-03-23T04:49:23;7.23;;;2.00;;
13349;SDS011;6744;53.190;6.576;2024-03-23T04:51:49;9.33;;;2.37;;
13349;SDS011;6744;53.190;6.576;2024-03-23T04:54:15;6.93;;;2.70;;
13349;SDS011;6744;53.190;6.576;2024-03-23T04:56:40;5.73;;;2.17;;
13349;SDS011;6744;53.190;6.576;2024-03-23T04:59:06;6.50;;;2.47;;
13349;SDS011;6744;53.190;6.576;2024-03-23T05:01:31;11.90;;;2.90;;
13349;SDS011;6744;53.190;6.576;2024-03-23T05:03:57;6.90;;;2.60;;
13349;SDS011;6744;53.190;6.576;2024-03-23T05:06:23;7.93;;;2.83;;
13349;SDS011;6744;53.190;6.576;2024-03-23T05:08:49;5.40;;;2.10;;
13349;SDS011;6744;53.190;6.576;2024-03-23T05:11:14;7.03;;;2.67;;
13349;SDS011;6744;53.190;6.576;2024-03-23T05:13:41;7.17;;;2.37;;
13349;SDS011;6744;53.190;6.576;2024-03-23T05:16:06;6.87;;;2.40;;
13349;SDS011;6744;53.190;6.576;2024-03-23T05:18:32;8.27;;;2.40;;
13349;SDS011;6744;53.190;6.576;2024-03-23T05:20:58;9.10;;;2.70;;
13349;SDS011;6744;53.190;6.576;2024-03-23T05:23:24;6.13;;;2.80;;
13349;SDS011;6744;53.190;6.576;2024-03-23T05:25:50;8.47;;;2.30;;
13349;SDS011;6744;53.190;6.576;2024-03-23T05:28:16;6.87;;;2.27;;
13349;SDS011;6744;53.190;6.576;2024-03-23T05:30:42;6.20;;;2.30;;
13349;SDS011;6744;53.190;6.576;2024-03-23T05:33:08;10.20;;;3.07;;
13349;SDS011;6744;53.190;6.576;2024-03-23T05:35:33;7.87;;;2.47;;
13349;SDS011;6744;53.190;6.576;2024-03-23T05:37:59;8.80;;;2.57;;
13349;SDS011;6744;53.190;6.576;2024-03-23T05:40:25;8.80;;;2.70;;
13349;SDS011;6744;53.190;6.576;2024-03-23T05:42:51;7.03;;;2.23;;
13349;SDS011;6744;53.190;6.576;2024-03-23T05:45:21;6.77;;;2.27;;
13349;SDS011;6744;53.190;6.576;2024-03-23T05:47:47;8.83;;;2.93;;
13349;SDS011;6744;53.190;6.576;2024-03-23T05:50:13;9.77;;;2.10;;
13349;SDS011;6744;53.190;6.576;2024-03-23T05:52:39;6.40;;;2.10;;
13349;SDS011;6744;53.190;6.576;2024-03-23T05:55:05;7.77;;;2.37;;
13349;SDS011;6744;53.190;6.576;2024-03-23T05:57:31;8.37;;;2.27;;
13349;SDS011;6744;53.190;6.576;2024-03-23T05:59:56;5.83;;;1.93;;
13349;SDS011;6744;53.190;6.576;2024-03-23T06:02:22;6.00;;;1.60;;
13349;SDS011;6744;53.190;6.576;2024-03-23T06:04:48;5.33;;;1.90;;
13349;SDS011;6744;53.190;6.576;2024-03-23T06:07:14;7.77;;;2.40;;
13349;SDS011;6744;53.190;6.576;2024-03-23T06:09:42;9.57;;;2.70;;
13349;SDS011;6744;53.190;6.576;2024-03-23T06:12:08;7.20;;;1.80;;
13349;SDS011;6744;53.190;6.576;2024-03-23T06:14:34;5.50;;;1.70;;
13349;SDS011;6744;53.190;6.576;2024-03-23T06:17:00;7.30;;;1.60;;
13349;SDS011;6744;53.190;6.576;2024-03-23T06:19:26;9.60;;;2.20;;
13349;SDS011;6744;53.190;6.576;2024-03-23T06:21:55;8.93;;;1.60;;
13349;SDS011;6744;53.190;6.576;2024-03-23T06:24:21;3.83;;;1.23;;
13349;SDS011;6744;53.190;6.576;2024-03-23T06:26:47;4.20;;;1.00;;
13349;SDS011;6744;53.190;6.576;2024-03-23T06:29:12;6.47;;;1.53;;
13349;SDS011;6744;53.190;6.576;2024-03-23T06:31:38;3.10;;;1.03;;
13349;SDS011;6744;53.190;6.576;2024-03-23T06:34:04;4.40;;;1.20;;
13349;SDS011;6744;53.190;6.576;2024-03-23T06:36:29;2.77;;;0.77;;
13349;SDS011;6744;53.190;6.576;2024-03-23T06:38:56;3.97;;;0.90;;
13349;SDS011;6744;53.190;6.576;2024-03-23T06:41:21;4.43;;;1.30;;
13349;SDS011;6744;53.190;6.576;2024-03-23T06:43:47;2.73;;;1.00;;
13349;SDS011;6744;53.190;6.576;2024-03-23T06:46:12;3.77;;;1.00;;
13349;SDS011;6744;53.190;6.576;2024-03-23T06:48:37;4.83;;;1.13;;
13349;SDS011;6744;53.190;6.576;2024-03-23T06:51:03;3.33;;;1.33;;
13349;SDS011;6744;53.190;6.576;2024-03-23T06:53:29;3.10;;;1.10;;
13349;SDS011;6744;53.190;6.576;2024-03-23T06:55:54;4.93;;;1.33;;
13349;SDS011;6744;53.190;6.576;2024-03-23T06:58:20;2.30;;;0.90;;
13349;SDS011;6744;53.190;6.576;2024-03-23T07:00:46;3.53;;;1.10;;
13349;SDS011;6744;53.190;6.576;2024-03-23T07:03:12;4.50;;;1.23;;
13349;SDS011;6744;53.190;6.576;2024-03-23T07:05:37;3.60;;;1.10;;
13349;SDS011;6744;53.190;6.576;2024-03-23T07:08:03;6.63;;;1.60;;
13349;SDS011;6744;53.190;6.576;2024-03-23T07:10:28;4.47;;;1.33;;
13349;SDS011;6744;53.190;6.576;2024-03-23T07:12:54;4.43;;;1.47;;
13349;SDS011;6744;53.190;6.576;2024-03-23T07:15:19;4.23;;;1.50;;
13349;SDS011;6744;53.190;6.576;2024-03-23T07:17:48;4.37;;;1.43;;
13349;SDS011;6744;53.190;6.576;2024-03-23T07:20:13;5.10;;;1.50;;
13349;SDS011;6744;53.190;6.576;2024-03-23T07:22:39;4.23;;;1.40;;
13349;SDS011;6744;53.190;6.576;2024-03-23T07:25:05;4.63;;;1.03;;
13349;SDS011;6744;53.190;6.576;2024-03-23T07:27:30;3.47;;;1.20;;
13349;SDS011;6744;53.190;6.576;2024-03-23T07:29:56;3.87;;;1.13;;
13349;SDS011;6744;53.190;6.576;2024-03-23T07:32:21;2.27;;;1.13;;
13349;SDS011;6744;53.190;6.576;2024-03-23T07:34:46;2.57;;;1.10;;
13349;SDS011;6744;53.190;6.576;2024-03-23T07:37:12;4.13;;;1.10;;
13349;SDS011;6744;53.190;6.576;2024-03-23T07:39:39;2.37;;;0.70;;
13349;SDS011;6744;53.190;6.576;2024-03-23T07:42:04;3.10;;;0.87;;
13349;SDS011;6744;53.190;6.576;2024-03-23T07:44:30;2.77;;;1.03;;
13349;SDS011;6744;53.190;6.576;2024-03-23T07:46:55;2.67;;;0.97;;
13349;SDS011;6744;53.190;6.576;2024-03-23T07:49:21;3.57;;;0.97;;
13349;SDS011;6744;53.190;6.576;2024-03-23T07:51:46;3.53;;;0.87;;
13349;SDS011;6744;53.190;6.576;2024-03-23T07:54:12;3.17;;;1.07;;
13349;SDS011;6744;53.190;6.576;2024-03-23T07:56:37;2.53;;;0.93;;
13349;SDS011;6744;53.190;6.576;2024-03-23T07:59:03;2.47;;;0.80;;
13349;SDS011;6744;53.190;6.576;2024-03-23T08:01:28;3.40;;;1.10;;
13349;SDS011;6744;53.190;6.576;2024-03-23T08:03:54;3.57;;;1.17;;
13349;SDS011;6744;53.190;6.576;2024-03-23T08:06:20;3.30;;;1.10;;
13349;SDS011;6744;53.190;6.576;2024-03-23T08:08:47;2.93;;;1.33;;
13349;SDS011;6744;53.190;6.576;2024-03-23T08:11:14;4.17;;;1.27;;
13349;SDS011;6744;53.190;6.576;2024-03-23T08:13:40;3.40;;;1.10;;
13349;SDS011;6744;53.190;6.576;2024-03-23T08:16:06;3.57;;;1.20;;
13349;SDS011;6744;53.190;6.576;2024-03-23T08:18:33;4.23;;;1.30;;
13349;SDS011;6744;53.190;6.576;2024-03-23T08:21:05;3.33;;;1.10;;
13349;SDS011;6744;53.190;6.576;2024-03-23T08:23:32;5.83;;;1.80;;
13349;SDS011;6744;53.190;6.576;2024-03-23T08:26:02;4.50;;;1.40;;
13349;SDS011;6744;53.190;6.576;2024-03-23T08:28:28;5.60;;;1.53;;
13349;SDS011;6744;53.190;6.576;2024-03-23T08:30:54;5.00;;;1.63;;
13349;SDS011;6744;53.190;6.576;2024-03-23T08:33:20;6.50;;;1.50;;
13349;SDS011;6744;53.190;6.576;2024-03-23T08:35:53;3.83;;;1.23;;
13349;SDS011;6744;53.190;6.576;2024-03-23T08:38:20;5.13;;;1.10;;
13349;SDS011;6744;53.190;6.576;2024-03-23T08:40:45;4.47;;;1.40;;
13349;SDS011;6744;53.190;6.576;2024-03-23T08:43:11;4.70;;;1.30;;
13349;SDS011;6744;53.190;6.576;2024-03-23T08:45:36;3.97;;;1.50;;
13349;SDS011;6744;53.190;6.576;2024-03-23T08:48:01;5.03;;;1.70;;
13349;SDS011;6744;53.190;6.576;2024-03-23T08:50:27;4.87;;;1.63;;
13349;SDS011;6744;53.190;6.576;2024-03-23T08:52:52;5.63;;;1.60;;
13349;SDS011;6744;53.190;6.576;2024-03-23T08:55:18;4.70;;;1.27;;
13349;SDS011;6744;53.190;6.576;2024-03-23T08:57:43;4.57;;;1.43;;
13349;SDS011;6744;53.190;6.576;2024-03-23T09:00:09;6.37;;;1.50;;
13349;SDS011;6744;53.190;6.576;2024-03-23T09:02:36;4.17;;;1.80;;
13349;SDS011;6744;53.190;6.576;2024-03-23T09:05:02;3.43;;;1.40;;
13349;SDS011;6744;53.190;6.576;2024-03-23T09:07:32;6.93;;;1.80;;
13349;SDS011;6744;53.190;6.576;2024-03-23T09:09:58;3.30;;;1.50;;
13349;SDS011;6744;53.190;6.576;2024-03-23T09:12:23;4.10;;;1.20;;
13349;SDS011;6744;53.190;6.576;2024-03-23T09:14:50;5.47;;;1.50;;
13349;SDS011;6744;53.190;6.576;2024-03-23T09:17:15;5.13;;;1.63;;
13349;SDS011;6744;53.190;6.576;2024-03-23T09:19:41;5.90;;;1.50;;
13349;SDS011;6744;53.190;6.576;2024-03-23T09:22:06;5.33;;;1.63;;
13349;SDS011;6744;53.190;6.576;2024-03-23T09:24:32;5.23;;;1.50;;
13349;SDS011;6744;53.190;6.576;2024-03-23T09:26:57;7.10;;;1.57;;
13349;SDS011;6744;53.190;6.576;2024-03-23T09:29:23;8.40;;;2.10;;
13349;SDS011;6744;53.190;6.576;2024-03-23T09:31:48;5.43;;;1.80;;
13349;SDS011;6744;53.190;6.576;2024-03-23T09:34:13;4.23;;;1.50;;
13349;SDS011;6744;53.190;6.576;2024-03-23T09:36:39;5.20;;;1.57;;
13349;SDS011;6744;53.190;6.576;2024-03-23T09:39:07;4.47;;;1.70;;
13349;SDS011;6744;53.190;6.576;2024-03-23T09:41:34;3.87;;;1.20;;
13349;SDS011;6744;53.190;6.576;2024-03-23T09:44:00;3.13;;;1.50;;
13349;SDS011;6744;53.190;6.576;2024-03-23T09:46:26;3.77;;;0.97;;
13349;SDS011;6744;53.190;6.576;2024-03-23T09:48:53;5.67;;;1.20;;
13349;SDS011;6744;53.190;6.576;2024-03-23T09:51:20;4.57;;;1.20;;
13349;SDS011;6744;53.190;6.576;2024-03-23T09:53:46;4.60;;;1.70;;
13349;SDS011;6744;53.190;6.576;2024-03-23T09:56:11;4.20;;;1.47;;
13349;SDS011;6744;53.190;6.576;2024-03-23T09:58:37;3.37;;;1.43;;
13349;SDS011;6744;53.190;6.576;2024-03-23T10:01:02;5.13;;;1.63;;
13349;SDS011;6744;53.190;6.576;2024-03-23T10:03:28;3.57;;;1.10;;
13349;SDS011;6744;53.190;6.576;2024-03-23T10:06:00;2.13;;;0.80;;
13349;SDS011;6744;53.190;6.576;2024-03-23T10:08:28;1.50;;;0.50;;
13349;SDS011;6744;53.190;6.576;2024-03-23T10:10:54;2.47;;;0.80;;
13349;SDS011;6744;53.190;6.576;2024-03-23T10:13:26;1.60;;;0.77;;
13349;SDS011;6744;53.190;6.576;2024-03-23T10:15:56;2.27;;;0.90;;
13349;SDS011;6744;53.190;6.576;2024-03-23T10:18:23;3.60;;;1.00;;
13349;SDS011;6744;53.190;6.576;2024-03-23T10:23:30;5.37;;;1.50;;
13349;SDS011;6744;53.190;6.576;2024-03-23T10:26:00;3.33;;;1.43;;
13349;SDS011;6744;53.190;6.576;2024-03-23T10:28:58;3.30;;;1.50;;
13349;SDS011;6744;53.190;6.576;2024-03-23T10:31:27;6.53;;;1.57;;
13349;SDS011;6744;53.190;6.576;2024-03-23T10:33:53;5.00;;;1.53;;
13349;SDS011;6744;53.190;6.576;2024-03-23T10:36:20;7.33;;;1.80;;
13349;SDS011;6744;53.190;6.576;2024-03-23T10:38:46;5.93;;;1.90;;
13349;SDS011;6744;53.190;6.576;2024-03-23T10:41:11;6.27;;;1.80;;
13349;SDS011;6744;53.190;6.576;2024-03-23T10:43:37;3.83;;;1.20;;
13349;SDS011;6744;53.190;6.576;2024-03-23T10:46:04;3.13;;;1.23;;
13349;SDS011;6744;53.190;6.576;2024-03-23T10:48:30;3.67;;;1.00;;
13349;SDS011;6744;53.190;6.576;2024-03-23T10:50:58;3.10;;;0.80;;
13349;SDS011;6744;53.190;6.576;2024-03-23T10:53:27;4.20;;;1.10;;
13349;SDS011;6744;53.190;6.576;2024-03-23T10:55:53;4.83;;;1.43;;
13349;SDS011;6744;53.190;6.576;2024-03-23T10:58:24;5.57;;;1.40;;
13349;SDS011;6744;53.190;6.576;2024-03-23T11:00:55;6.67;;;1.37;;
13349;SDS011;6744;53.190;6.576;2024-03-23T11:03:33;3.20;;;1.20;;
13349;SDS011;6744;53.190;6.576;2024-03-23T11:06:03;5.40;;;1.60;;
13349;SDS011;6744;53.190;6.576;2024-03-23T11:08:29;5.47;;;1.50;;
13349;SDS011;6744;53.190;6.576;2024-03-23T11:11:11;3.87;;;1.43;;
13349;SDS011;6744;53.190;6.576;2024-03-23T11:13:44;5.70;;;1.80;;
13349;SDS011;6744;53.190;6.576;2024-03-23T11:16:12;3.60;;;1.60;;
13349;SDS011;6744;53.190;6.576;2024-03-23T11:18:42;6.37;;;1.70;;
13349;SDS011;6744;53.190;6.576;2024-03-23T11:21:08;5.80;;;1.30;;
13349;SDS011;6744;53.190;6.576;2024-03-23T11:23:34;5.53;;;1.50;;
13349;SDS011;6744;53.190;6.576;2024-03-23T11:26:00;3.43;;;1.23;;
13349;SDS011;6744;53.190;6.576;2024-03-23T11:28:25;5.70;;;1.60;;
13349;SDS011;6744;53.190;6.576;2024-03-23T11:30:51;4.17;;;1.20;;
13349;SDS011;6744;53.190;6.576;2024-03-23T11:33:16;4.67;;;1.57;;
13349;SDS011;6744;53.190;6.576;2024-03-23T11:35:42;4.33;;;1.27;;
13349;SDS011;6744;53.190;6.576;2024-03-23T11:38:08;5.43;;;1.47;;
13349;SDS011;6744;53.190;6.576;2024-03-23T11:40:44;5.77;;;1.53;;
13349;SDS011;6744;53.190;6.576;2024-03-23T11:43:14;5.67;;;1.33;;
13349;SDS011;6744;53.190;6.576;2024-03-23T11:48:20;4.47;;;1.30;;
13349;SDS011;6744;53.190;6.576;2024-03-23T11:50:48;5.97;;;1.60;;
13349;SDS011;6744;53.190;6.576;2024-03-23T11:53:20;5.17;;;1.70;;
13349;SDS011;6744;53.190;6.576;2024-03-23T11:58:25;5.50;;;1.87;;
13349;SDS011;6744;53.190;6.576;2024-03-23T12:03:25;5.57;;;1.63;;
13349;SDS011;6744;53.190;6.576;2024-03-23T12:05:53;5.47;;;1.20;;
13349;SDS011;6744;53.190;6.576;2024-03-23T12:08:29;4.93;;;1.30;;
13349;SDS011;6744;53.190;6.576;2024-03-23T12:13:34;5.20;;;1.30;;
13349;SDS011;6744;53.190;6.576;2024-03-23T12:16:09;3.33;;;1.00;;
13349;SDS011;6744;53.190;6.576;2024-03-23T12:18:37;3.07;;;1.10;;
13349;SDS011;6744;53.190;6.576;2024-03-23T12:21:03;5.67;;;1.40;;
13349;SDS011;6744;53.190;6.576;2024-03-23T12:23:29;3.13;;;1.00;;
13349;SDS011;6744;53.190;6.576;2024-03-23T12:25:54;3.57;;;1.00;;
13349;SDS011;6744;53.190;6.576;2024-03-23T12:28:20;5.90;;;1.33;;
13349;SDS011;6744;53.190;6.576;2024-03-23T12:30:45;3.43;;;0.83;;
13349;SDS011;6744;53.190;6.576;2024-03-23T12:33:10;3.17;;;1.10;;
13349;SDS011;6744;53.190;6.576;2024-03-23T12:35:36;2.67;;;0.90;;
13349;SDS011;6744;53.190;6.576;2024-03-23T12:38:03;2.97;;;1.30;;
13349;SDS011;6744;53.190;6.576;2024-03-23T12:40:28;3.43;;;0.90;;
13349;SDS011;6744;53.190;6.576;2024-03-23T12:42:54;4.73;;;1.20;;
13349;SDS011;6744;53.190;6.576;2024-03-23T12:45:19;4.40;;;1.13;;
13349;SDS011;6744;53.190;6.576;2024-03-23T12:47:45;3.07;;;1.00;;
13349;SDS011;6744;53.190;6.576;2024-03-23T12:50:10;2.57;;;0.90;;
13349;SDS011;6744;53.190;6.576;2024-03-23T12:52:36;3.63;;;1.60;;
13349;SDS011;6744;53.190;6.576;2024-03-23T12:55:02;4.20;;;1.23;;
13349;SDS011;6744;53.190;6.576;2024-03-23T12:57:30;4.73;;;1.20;;
13349;SDS011;6744;53.190;6.576;2024-03-23T12:59:56;2.67;;;0.90;;
13349;SDS011;6744;53.190;6.576;2024-03-23T13:02:21;2.53;;;0.80;;
13349;SDS011;6744;53.190;6.576;2024-03-23T13:04:50;2.57;;;0.83;;
13349;SDS011;6744;53.190;6.576;2024-03-23T13:07:17;3.97;;;1.03;;
13349;SDS011;6744;53.190;6.576;2024-03-23T13:09:42;3.80;;;1.20;;
13349;SDS011;6744;53.190;6.576;2024-03-23T13:12:08;4.50;;;1.20;;
13349;SDS011;6744;53.190;6.576;2024-03-23T13:14:33;3.17;;;1.10;;
13349;SDS011;6744;53.190;6.576;2024-03-23T13:16:59;3.83;;;1.40;;
13349;SDS011;6744;53.190;6.576;2024-03-23T13:19:24;4.40;;;1.30;;
13349;SDS011;6744;53.190;6.576;2024-03-23T13:21:55;4.00;;;1.30;;
13349;SDS011;6744;53.190;6.576;2024-03-23T13:24:22;4.80;;;1.53;;
13349;SDS011;6744;53.190;6.576;2024-03-23T13:26:49;5.27;;;1.60;;
13349;SDS011;6744;53.190;6.576;2024-03-23T13:29:15;2.87;;;1.00;;
13349;SDS011;6744;53.190;6.576;2024-03-23T13:31:40;2.40;;;1.20;;
13349;SDS011;6744;53.190;6.576;2024-03-23T13:34:06;3.90;;;1.10;;
13349;SDS011;6744;53.190;6.576;2024-03-23T13:36:31;3.83;;;1.30;;
13349;SDS011;6744;53.190;6.576;2024-03-23T13:38:57;6.27;;;1.50;;
13349;SDS011;6744;53.190;6.576;2024-03-23T13:41:22;4.03;;;1.37;;
13349;SDS011;6744;53.190;6.576;2024-03-23T13:43:49;4.07;;;1.50;;
13349;SDS011;6744;53.190;6.576;2024-03-23T13:46:14;4.00;;;1.27;;
13349;SDS011;6744;53.190;6.576;2024-03-23T13:48:40;5.90;;;1.67;;
13349;SDS011;6744;53.190;6.576;2024-03-23T13:51:07;4.73;;;1.27;;
13349;SDS011;6744;53.190;6.576;2024-03-23T13:53:32;5.67;;;1.40;;
13349;SDS011;6744;53.190;6.576;2024-03-23T13:55:58;3.33;;;1.10;;
13349;SDS011;6744;53.190;6.576;2024-03-23T13:58:23;3.47;;;1.10;;
13349;SDS011;6744;53.190;6.576;2024-03-23T14:00:50;3.63;;;1.23;;
13349;SDS011;6744;53.190;6.576;2024-03-23T14:03:16;3.97;;;1.10;;
13349;SDS011;6744;53.190;6.576;2024-03-23T14:05:43;4.63;;;1.07;;
13349;SDS011;6744;53.190;6.576;2024-03-23T14:08:09;4.03;;;1.20;;
13349;SDS011;6744;53.190;6.576;2024-03-23T14:10:35;4.47;;;1.30;;
13349;SDS011;6744;53.190;6.576;2024-03-23T14:13:04;4.03;;;1.20;;
13349;SDS011;6744;53.190;6.576;2024-03-23T14:15:29;7.47;;;1.50;;
13349;SDS011;6744;53.190;6.576;2024-03-23T14:17:55;8.70;;;1.30;;
13349;SDS011;6744;53.190;6.576;2024-03-23T14:20:21;3.50;;;1.10;;
13349;SDS011;6744;53.190;6.576;2024-03-23T14:22:47;3.93;;;1.30;;
13349;SDS011;6744;53.190;6.576;2024-03-23T14:25:13;5.77;;;1.37;;
13349;SDS011;6744;53.190;6.576;2024-03-23T14:27:39;4.50;;;1.03;;
13349;SDS011;6744;53.190;6.576;2024-03-23T14:30:04;2.83;;;1.17;;
13349;SDS011;6744;53.190;6.576;2024-03-23T14:32:31;4.70;;;1.17;;
13349;SDS011;6744;53.190;6.576;2024-03-23T14:35:08;3.30;;;1.00;;
13349;SDS011;6744;53.190;6.576;2024-03-23T14:37:36;4.57;;;1.57;;
13349;SDS011;6744;53.190;6.576;2024-03-23T14:40:02;4.20;;;1.13;;
13349;SDS011;6744;53.190;6.576;2024-03-23T14:42:28;5.33;;;1.73;;
13349;SDS011;6744;53.190;6.576;2024-03-23T14:44:53;5.40;;;1.43;;
13349;SDS011;6744;53.190;6.576;2024-03-23T14:47:19;9.10;;;1.93;;
13349;SDS011;6744;53.190;6.576;2024-03-23T14:49:46;4.00;;;1.47;;
13349;SDS011;6744;53.190;6.576;2024-03-23T14:52:15;7.00;;;1.90;;
13349;SDS011;6744;53.190;6.576;2024-03-23T14:54:41;5.23;;;1.60;;
13349;SDS011;6744;53.190;6.576;2024-03-23T14:57:07;8.00;;;1.97;;
13349;SDS011;6744;53.190;6.576;2024-03-23T14:59:34;6.63;;;1.70;;
13349;SDS011;6744;53.190;6.576;2024-03-23T15:02:03;4.33;;;1.47;;
13349;SDS011;6744;53.190;6.576;2024-03-23T15:04:35;6.20;;;1.50;;
13349;SDS011;6744;53.190;6.576;2024-03-23T15:07:01;7.13;;;1.70;;
13349;SDS011;6744;53.190;6.576;2024-03-23T15:09:27;3.33;;;1.27;;
13349;SDS011;6744;53.190;6.576;2024-03-23T15:11:52;2.17;;;0.70;;
13349;SDS011;6744;53.190;6.576;2024-03-23T15:14:20;3.80;;;1.00;;
13349;SDS011;6744;53.190;6.576;2024-03-23T15:16:45;3.63;;;1.13;;
13349;SDS011;6744;53.190;6.576;2024-03-23T15:19:13;3.07;;;1.03;;
13349;SDS011;6744;53.190;6.576;2024-03-23T15:21:39;2.67;;;0.97;;
13349;SDS011;6744;53.190;6.576;2024-03-23T15:24:05;4.03;;;1.30;;
13349;SDS011;6744;53.190;6.576;2024-03-23T15:26:31;5.40;;;1.30;;
13349;SDS011;6744;53.190;6.576;2024-03-23T15:28:56;5.43;;;1.50;;
13349;SDS011;6744;53.190;6.576;2024-03-23T15:31:21;4.30;;;1.60;;
13349;SDS011;6744;53.190;6.576;2024-03-23T15:33:47;5.53;;;1.47;;
13349;SDS011;6744;53.190;6.576;2024-03-23T15:36:12;5.50;;;1.60;;
13349;SDS011;6744;53.190;6.576;2024-03-23T15:38:38;5.33;;;1.70;;
13349;SDS011;6744;53.190;6.576;2024-03-23T15:41:03;5.07;;;1.60;;
13349;SDS011;6744;53.190;6.576;2024-03-23T15:43:29;5.50;;;1.87;;
13349;SDS011;6744;53.190;6.576;2024-03-23T15:45:55;5.57;;;1.77;;
13349;SDS011;6744;53.190;6.576;2024-03-23T15:48:30;4.80;;;1.70;;
13349;SDS011;6744;53.190;6.576;2024-03-23T15:50:57;5.13;;;1.70;;
13349;SDS011;6744;53.190;6.576;2024-03-23T15:53:24;5.43;;;1.57;;
13349;SDS011;6744;53.190;6.576;2024-03-23T15:56:08;4.17;;;1.40;;
13349;SDS011;6744;53.190;6.576;2024-03-23T15:58:33;5.93;;;1.33;;
13349;SDS011;6744;53.190;6.576;2024-03-23T16:01:06;6.53;;;1.93;;